createdAt,value
2023-04-02T00:01:41.022Z,15.80
2023-04-02T00:04:26.549Z,15.80
2023-04-02T00:07:30.906Z,15.82
2023-04-02T00:10:27.904Z,15.84
2023-04-02T00:13:33.420Z,15.88
2023-04-02T00:16:15.600Z,15.88
2023-04-02T00:18:55.935Z,15.80
2023-04-02T00:21:35.599Z,15.80
2023-04-02T00:24:23.105Z,15.78
2023-04-02T00:27:01.216Z,15.70
2023-04-02T00:29:37.371Z,15.60
2023-04-02T00:32:23.795Z,15.50
2023-04-02T00:34:59.884Z,15.40
2023-04-02T00:37:42.735Z,15.40
2023-04-02T00:40:29.073Z,15.40
2023-04-02T00:43:08.482Z,15.34
2023-04-02T00:45:51.235Z,15.30
2023-04-02T00:48:48.881Z,15.30
2023-04-02T00:51:29.612Z,15.20
2023-04-02T00:54:16.154Z,15.20
2023-04-02T00:56:55.689Z,15.16
2023-04-02T00:59:34.582Z,15.10
2023-04-02T01:02:42.942Z,15.10
2023-04-02T01:05:36.416Z,15.10
2023-04-02T01:08:26.532Z,15.04
2023-04-02T01:11:20.400Z,15.00
2023-04-02T01:14:09.306Z,15.00
2023-04-02T01:16:56.166Z,15.00
2023-04-02T01:20:32.975Z,14.90
2023-04-02T01:23:17.095Z,14.90
2023-04-02T01:26:02.409Z,14.90
2023-04-02T01:28:49.445Z,14.90
2023-04-02T01:31:27.445Z,14.80
2023-04-02T01:34:04.666Z,14.80
2023-04-02T01:36:54.647Z,14.70
2023-04-02T01:39:51.268Z,14.70
2023-04-02T01:42:37.429Z,14.60
2023-04-02T01:45:20.496Z,14.60
2023-04-02T01:47:56.698Z,14.56
2023-04-02T01:50:37.542Z,14.50
2023-04-02T01:53:18.604Z,14.50
2023-04-02T01:55:57.523Z,14.40
2023-04-02T01:58:36.486Z,14.40
2023-04-02T02:01:20.242Z,14.40
2023-04-02T02:03:58.679Z,14.40
2023-04-02T02:06:35.516Z,14.40
2023-04-02T02:09:17.436Z,14.40
2023-04-02T02:11:54.470Z,14.40
2023-04-02T02:14:31.955Z,14.50
2023-04-02T02:17:13.816Z,14.50
2023-04-02T02:19:54.246Z,14.50
2023-04-02T02:22:36.405Z,14.50
2023-04-02T02:25:19.709Z,14.50
2023-04-02T02:28:24.208Z,14.50
2023-04-02T02:31:05.421Z,14.60
2023-04-02T02:33:50.482Z,14.60
2023-04-02T02:36:35.953Z,14.70
2023-04-02T02:39:24.196Z,14.70
2023-04-02T02:42:03.746Z,14.80
2023-04-02T02:44:47.013Z,14.86
2023-04-02T02:47:28.323Z,14.90
2023-04-02T02:50:10.194Z,15.00
2023-04-02T02:52:54.751Z,15.00
2023-04-02T02:55:38.223Z,14.90
2023-04-02T02:58:31.554Z,14.86
2023-04-02T03:01:20.748Z,14.70
2023-04-02T03:03:59.090Z,14.60
2023-04-02T03:06:37.037Z,14.60
2023-04-02T03:09:25.104Z,14.50
2023-04-02T03:12:12.540Z,14.40
2023-04-02T03:14:55.766Z,14.40
2023-04-02T03:17:39.505Z,14.30
2023-04-02T03:20:24.953Z,14.10
2023-04-02T03:23:09.411Z,14.10
2023-04-02T03:25:55.599Z,13.90
2023-04-02T03:28:38.189Z,13.80
2023-04-02T03:31:20.174Z,13.70
2023-04-02T03:34:01.233Z,13.70
2023-04-02T03:36:46.795Z,13.60
2023-04-02T03:39:33.411Z,13.66
2023-04-02T03:42:16.783Z,13.66
2023-04-02T03:45:02.967Z,13.60
2023-04-02T03:47:46.873Z,13.64
2023-04-02T03:50:31.981Z,13.70
2023-04-02T03:53:11.060Z,13.70
2023-04-02T03:55:49.165Z,13.60
2023-04-02T03:58:36.218Z,13.50
2023-04-02T04:01:23.426Z,13.50
2023-04-02T04:04:07.877Z,13.50
2023-04-02T04:06:48.347Z,13.50
2023-04-02T04:09:32.076Z,13.60
2023-04-02T04:12:24.838Z,13.64
2023-04-02T04:15:09.306Z,13.70
2023-04-02T04:18:02.730Z,13.66
2023-04-02T04:20:56.681Z,13.60
2023-04-02T04:23:39.396Z,13.60
2023-04-02T04:26:31.243Z,13.60
2023-04-02T04:29:28.028Z,13.60
2023-04-02T04:32:19.142Z,13.60
2023-04-02T04:34:58.540Z,13.80
2023-04-02T04:37:43.425Z,13.96
2023-04-02T04:40:27.309Z,14.10
2023-04-02T04:43:10.254Z,14.20
2023-04-02T04:45:54.067Z,14.30
2023-04-02T04:48:37.397Z,14.30
2023-04-02T04:51:23.654Z,14.40
2023-04-02T04:54:00.659Z,14.40
2023-04-02T04:56:39.868Z,14.38
2023-04-02T04:59:28.202Z,14.20
2023-04-02T05:02:14.297Z,14.10
2023-04-02T05:04:54.500Z,14.00
2023-04-02T05:07:45.789Z,14.00
2023-04-02T05:10:33.155Z,14.00
2023-04-02T05:13:18.732Z,13.90
2023-04-02T05:16:04.214Z,13.84
2023-04-02T05:18:47.441Z,13.80
2023-04-02T05:21:30.712Z,13.80
2023-04-02T05:24:37.724Z,13.80
2023-04-02T05:27:38.580Z,13.80
2023-04-02T05:30:47.311Z,13.70
2023-04-02T05:33:29.372Z,13.50
2023-04-02T05:36:11.862Z,13.50
2023-04-02T05:38:56.442Z,13.30
2023-04-02T05:42:04.331Z,13.30
2023-04-02T05:45:03.148Z,13.30
2023-04-02T05:47:43.523Z,13.30
2023-04-02T05:50:40.881Z,13.40
2023-04-02T05:53:27.939Z,13.46
2023-04-02T05:56:10.102Z,13.50
2023-04-02T05:58:52.572Z,13.50
2023-04-02T06:01:48.394Z,13.50
2023-04-02T06:04:46.821Z,13.50
2023-04-02T06:07:30.423Z,13.60
2023-04-02T06:10:15.301Z,13.60
2023-04-02T06:12:58.428Z,13.60
2023-04-02T06:15:37.281Z,13.60
2023-04-02T06:18:25.076Z,13.60
2023-04-02T06:21:03.855Z,13.60
2023-04-02T06:23:48.507Z,13.60
2023-04-02T06:26:31.054Z,13.60
2023-04-02T06:29:17.991Z,13.60
2023-04-02T06:32:02.211Z,13.60
2023-04-02T06:34:40.736Z,13.54
2023-04-02T06:37:30.236Z,13.50
2023-04-02T06:40:42.356Z,13.50
2023-04-02T06:43:33.561Z,13.50
2023-04-02T06:46:42.305Z,13.40
2023-04-02T06:49:32.697Z,13.40
2023-04-02T06:52:22.528Z,13.40
2023-04-02T06:54:58.594Z,13.30
2023-04-02T06:57:36.069Z,13.30
2023-04-02T07:00:30.871Z,13.40
2023-04-02T07:03:17.050Z,13.40
2023-04-02T07:05:57.252Z,13.40
2023-04-02T07:08:33.939Z,13.40
2023-04-02T07:11:12.750Z,13.50
2023-04-02T07:13:48.885Z,13.50
2023-04-02T07:16:27.957Z,13.50
2023-04-02T07:19:05.088Z,13.60
2023-04-02T07:21:43.282Z,13.60
2023-04-02T07:24:19.645Z,13.68
2023-04-02T07:26:55.620Z,13.70
2023-04-02T07:29:31.573Z,13.70
2023-04-02T07:32:09.221Z,13.80
2023-04-02T07:34:45.627Z,13.80
2023-04-02T07:37:22.228Z,13.80
2023-04-02T07:39:58.760Z,13.80
2023-04-02T07:42:34.809Z,13.80
2023-04-02T07:45:16.356Z,13.80
2023-04-02T07:47:52.727Z,13.80
2023-04-02T07:50:29.086Z,13.70
2023-04-02T07:53:04.487Z,13.70
2023-04-02T07:55:40.840Z,13.70
2023-04-02T07:58:17.954Z,13.80
2023-04-02T08:00:54.070Z,13.80
2023-04-02T08:03:30.591Z,13.80
2023-04-02T08:06:08.303Z,13.80
2023-04-02T08:08:45.668Z,13.80
2023-04-02T08:11:20.947Z,13.78
2023-04-02T08:13:57.238Z,13.78
2023-04-02T08:16:46.062Z,13.80
2023-04-02T08:19:22.499Z,13.80
2023-04-02T08:21:58.370Z,13.80
2023-04-02T08:24:34.725Z,13.80
2023-04-02T08:27:13.783Z,13.90
2023-04-02T08:29:50.312Z,13.90
2023-04-02T08:32:29.096Z,13.90
2023-04-02T08:35:04.775Z,13.80
2023-04-02T08:37:40.780Z,13.70
2023-04-02T08:40:29.430Z,13.60
2023-04-02T08:43:33.137Z,13.50
2023-04-02T08:46:18.003Z,13.38
2023-04-02T08:49:00.965Z,13.30
2023-04-02T08:51:40.449Z,13.20
2023-04-02T08:54:29.359Z,13.10
2023-04-02T08:57:09.842Z,13.10
2023-04-02T08:59:49.398Z,13.10
2023-04-02T09:02:40.575Z,13.00
2023-04-02T09:05:29.513Z,12.90
2023-04-02T09:08:17.228Z,12.80
2023-04-02T09:11:03.216Z,12.60
2023-04-02T09:13:46.966Z,12.60
2023-04-02T09:16:28.786Z,12.50
2023-04-02T09:19:05.012Z,12.50
2023-04-02T09:21:48.786Z,12.60
2023-04-02T09:24:25.375Z,12.60
2023-04-02T09:27:01.937Z,12.70
2023-04-02T09:29:47.842Z,12.72
2023-04-02T09:32:52.028Z,12.90
2023-04-02T09:35:31.410Z,13.00
2023-04-02T09:38:25.281Z,13.10
2023-04-02T09:41:07.280Z,13.20
2023-04-02T09:43:45.165Z,13.30
2023-04-02T09:46:27.792Z,13.36
2023-04-02T09:49:06.368Z,13.40
2023-04-02T09:51:42.901Z,13.50
2023-04-02T09:54:22.695Z,13.60
2023-04-02T09:57:09.325Z,13.70
2023-04-02T09:59:46.236Z,13.80
2023-04-02T10:02:34.877Z,13.90
2023-04-02T10:05:37.276Z,14.00
2023-04-02T10:08:30.092Z,14.20
2023-04-02T10:11:11.147Z,14.34
2023-04-02T10:13:59.603Z,14.50
2023-04-02T10:16:41.965Z,14.64
2023-04-02T10:19:32.620Z,14.80
2023-04-02T10:22:16.811Z,15.00
2023-04-02T10:24:54.042Z,15.10
2023-04-02T10:27:42.074Z,15.20
2023-04-02T10:30:26.013Z,15.30
2023-04-02T10:33:08.125Z,15.40
2023-04-02T10:35:58.322Z,15.40
2023-04-02T10:38:54.270Z,15.40
2023-04-02T10:41:40.358Z,15.54
2023-04-02T10:44:37.556Z,15.70
2023-04-02T10:47:33.293Z,15.80
2023-04-02T10:50:29.814Z,15.92
2023-04-02T10:53:17.559Z,16.10
2023-04-02T10:56:01.670Z,16.30
2023-04-02T10:58:47.991Z,16.46
2023-04-02T11:01:32.630Z,16.50
2023-04-02T11:04:19.850Z,16.58
2023-04-02T11:07:11.570Z,16.60
2023-04-02T11:09:54.876Z,16.66
2023-04-02T11:12:44.165Z,16.80
2023-04-02T11:15:24.006Z,17.00
2023-04-02T11:18:00.901Z,17.14
2023-04-02T11:21:11.082Z,17.30
2023-04-02T11:24:06.572Z,17.50
2023-04-02T11:26:49.517Z,17.52
2023-04-02T11:29:31.100Z,17.50
2023-04-02T11:32:34.685Z,17.40
2023-04-02T11:35:43.129Z,17.30
2023-04-02T11:39:04.420Z,17.20
2023-04-02T11:42:24.965Z,16.88
2023-04-02T11:45:23.719Z,16.50
2023-04-02T11:48:36.328Z,16.10
2023-04-02T11:52:02.187Z,15.70
2023-04-02T11:54:46.283Z,15.40
2023-04-02T11:57:52.460Z,15.24
2023-04-02T12:00:57.181Z,15.10
2023-04-02T12:03:54.687Z,15.06
2023-04-02T12:06:54.415Z,14.94
2023-04-02T12:09:37.099Z,14.80
2023-04-02T12:12:34.236Z,14.70
2023-04-02T12:15:32.949Z,14.60
2023-04-02T12:18:20.623Z,14.50
2023-04-02T12:20:58.807Z,14.50
2023-04-02T12:23:39.160Z,14.60
2023-04-02T12:26:42.667Z,14.60
2023-04-02T12:29:31.770Z,14.66
2023-04-02T12:32:19.366Z,14.76
2023-04-02T12:34:56.768Z,14.90
2023-04-02T12:37:34.667Z,15.04
2023-04-02T12:40:26.499Z,15.20
2023-04-02T12:43:03.161Z,15.40
2023-04-02T12:45:41.329Z,15.50
2023-04-02T12:48:20.001Z,15.70
2023-04-02T12:50:58.227Z,15.90
2023-04-02T12:53:42.851Z,16.00
2023-04-02T12:56:27.288Z,16.20
2023-04-02T12:59:06.007Z,16.30
2023-04-02T13:01:56.788Z,16.40
2023-04-02T13:04:32.765Z,16.50
2023-04-02T13:07:10.142Z,16.60
2023-04-02T13:09:51.266Z,16.72
2023-04-02T13:12:38.359Z,16.90
2023-04-02T13:15:31.641Z,17.04
2023-04-02T13:18:24.273Z,17.20
2023-04-02T13:21:07.584Z,17.30
2023-04-02T13:23:44.792Z,17.42
2023-04-02T13:26:25.003Z,17.50
2023-04-02T13:29:23.423Z,17.70
2023-04-02T13:32:02.670Z,17.80
2023-04-02T13:34:38.821Z,18.00
2023-04-02T13:37:17.802Z,18.10
2023-04-02T13:39:53.890Z,18.24
2023-04-02T13:42:30.993Z,18.38
2023-04-02T13:45:10.054Z,18.50
2023-04-02T13:47:45.775Z,18.54
2023-04-02T13:50:26.937Z,18.60
2023-04-02T13:53:09.004Z,18.70
2023-04-02T13:55:48.005Z,18.80
2023-04-02T13:58:25.504Z,18.90
2023-04-02T14:01:02.976Z,18.90
2023-04-02T14:03:40.455Z,18.90
2023-04-02T14:06:32.336Z,19.00
2023-04-02T14:09:19.788Z,19.00
2023-04-02T14:12:10.532Z,19.10
2023-04-02T14:15:17.036Z,19.20
2023-04-02T14:18:16.836Z,19.20
2023-04-02T14:21:07.003Z,19.30
2023-04-02T14:24:08.756Z,19.40
2023-04-02T14:27:05.968Z,19.42
2023-04-02T14:29:56.195Z,19.50
2023-04-02T14:32:41.499Z,19.50
2023-04-02T14:35:27.110Z,19.50
2023-04-02T14:38:21.212Z,19.60
2023-04-02T14:41:02.125Z,19.60
2023-04-02T14:43:48.458Z,19.60
2023-04-02T14:46:27.609Z,19.50
2023-04-02T14:49:12.725Z,19.40
2023-04-02T14:51:57.191Z,19.30
2023-04-02T14:54:41.125Z,19.20
2023-04-02T14:57:24.743Z,19.10
2023-04-02T15:00:09.994Z,19.00
2023-04-02T15:02:53.460Z,18.90
2023-04-02T15:05:43.065Z,18.90
2023-04-02T15:08:29.379Z,18.80
2023-04-02T15:11:09.843Z,18.80
2023-04-02T15:13:55.382Z,18.70
2023-04-02T15:16:34.240Z,18.60
2023-04-02T15:19:16.170Z,18.58
2023-04-02T15:22:09.517Z,18.50
2023-04-02T15:24:59.015Z,18.48
2023-04-02T15:27:51.556Z,18.40
2023-04-02T15:30:33.195Z,18.40
2023-04-02T15:33:49.143Z,18.30
2023-04-02T15:36:56.137Z,18.30
2023-04-02T15:39:54.966Z,18.30
2023-04-02T15:42:36.071Z,18.30
2023-04-02T15:45:40.913Z,18.30
2023-04-02T15:48:34.872Z,18.30
2023-04-02T15:51:33.450Z,18.30
2023-04-02T15:54:29.470Z,18.28
2023-04-02T15:57:25.863Z,18.20
2023-04-02T16:00:23.578Z,18.20
2023-04-02T16:03:35.648Z,18.18
2023-04-02T16:06:28.228Z,18.10
2023-04-02T16:09:17.099Z,18.10
2023-04-02T16:11:58.994Z,18.00
2023-04-02T16:14:40.122Z,18.00
2023-04-02T16:17:25.275Z,18.00
2023-04-02T16:20:20.252Z,18.00
2023-04-02T16:23:07.731Z,17.90
2023-04-02T16:25:56.551Z,17.90
2023-04-02T16:28:44.698Z,17.90
2023-04-02T16:31:29.088Z,17.90
2023-04-02T16:34:14.793Z,17.80
2023-04-02T16:37:04.711Z,17.80
2023-04-02T16:39:53.439Z,17.80
2023-04-02T16:42:45.130Z,17.80
2023-04-02T16:45:38.665Z,17.80
2023-04-02T16:48:28.619Z,17.80
2023-04-02T16:51:19.641Z,17.80
2023-04-02T16:54:05.691Z,17.78
2023-04-02T16:57:05.453Z,17.70
2023-04-02T16:59:55.468Z,17.70
2023-04-02T17:02:54.757Z,17.70
2023-04-02T17:05:45.213Z,17.70
2023-04-02T23:13:30.582Z,13.64
2023-04-02T23:16:10.449Z,13.56
2023-04-02T23:18:49.556Z,13.50
2023-04-02T23:21:25.853Z,13.50
2023-04-02T23:24:02.494Z,13.50
2023-04-02T23:26:39.340Z,13.50
2023-04-02T23:29:17.608Z,13.50
2023-04-02T23:31:54.611Z,13.50
2023-04-02T23:34:31.784Z,13.50
2023-04-02T23:37:08.953Z,13.50
2023-04-02T23:39:45.124Z,13.42
2023-04-02T23:42:21.796Z,13.40
2023-04-02T23:44:58.657Z,13.40
2023-04-02T23:47:35.504Z,13.40
2023-04-02T23:50:15.795Z,13.40
2023-04-02T23:52:52.903Z,13.40
2023-04-02T23:55:29.975Z,13.36
2023-04-02T23:58:06.421Z,13.30
